Decoded Metar for PACV (CORDOVA in AK, USA) (IATA:CDV) | Meteo·Mobile Aviation Weather
aviador You're here:

PACV Decoded Metar

CORDOVA in AK, USA
Report Time2019-07-22 00:53:00
UTC Time2019-07-22 01:21:47
Flight Rules mvfr MVFR
Wind170° at 03 kt
W.Decomp.*RWY 16: 3.0 kt HW 0.5 kt LCW
RWY 09: 1.5 kt HW 2.6 kt RCW
Visibility9999 m
Phenomena:N/A
Clouds:Broken 011 Hf
Broken 018 Hf
Overcast 033 Hf
Expected CloudBase > 1,200 ft AGL from Temp-Dew spread
Ceiling1,100 ft
Temp16°C (ISA +1)
Dew Point13°C (83% RH)
AAT15.9°C
QNH1020 hPa
Density Alt131 ft
Elevation39 ft
Report Wrong Elevation
Raw Report
PACV 220053Z 17003KT 10SM BKN011 BKN018 OVC033 16/13 A3011 RMK AO2
SLP197 T01610133=

Extra information for PACV:More info

Metar Taf Metar & Taf Last 4 Metars F.Rules Stats Wind Profile Meteogram Temp Stats Airport Information Weather charts Add Link Nearby VenuesMetar ALERT Operation Metar Decoded Social comments

AIRNAV info for PACV